createdAt,value
2023-02-08T00:02:24.227Z,-1.45
2023-02-08T00:07:27.308Z,-1.36
2023-02-08T00:12:30.328Z,-1.40
2023-02-08T00:17:33.850Z,-1.52
2023-02-08T00:22:38.344Z,-1.47
2023-02-08T00:27:41.798Z,-1.24
2023-02-08T00:32:44.827Z,-1.09
2023-02-08T00:37:48.565Z,-0.99
2023-02-08T00:42:54.627Z,-1.01
2023-02-08T00:47:57.641Z,-0.88
2023-02-08T00:53:02.061Z,-0.82
2023-02-08T00:58:05.684Z,-0.91
2023-02-08T01:03:08.679Z,-0.62
2023-02-08T01:08:11.730Z,-0.52
2023-02-08T01:13:14.867Z,-0.39
2023-02-08T01:18:18.903Z,-0.34
2023-02-08T01:23:22.903Z,-0.32
2023-02-08T01:28:26.058Z,-0.40
2023-02-08T01:33:29.629Z,-0.37
2023-02-08T01:38:33.108Z,-0.32
2023-02-08T01:44:08.767Z,-0.30
2023-02-08T01:49:17.815Z,-0.38
2023-02-08T01:54:27.034Z,-0.51
2023-02-08T01:59:37.755Z,-0.37
2023-02-08T02:04:41.453Z,-0.38
2023-02-08T02:09:58.321Z,-0.30
2023-02-08T02:15:04.150Z,-0.20
2023-02-08T02:20:28.527Z,-0.17
2023-02-08T02:25:52.798Z,-0.19
2023-02-08T02:31:19.437Z,-0.12
2023-02-08T02:37:12.829Z,-0.10
2023-02-08T02:42:46.207Z,0.04
2023-02-08T02:47:58.683Z,-0.01
2023-02-08T02:53:20.287Z,0.11
2023-02-08T02:58:25.607Z,0.19
2023-02-08T03:03:33.455Z,0.24
2023-02-08T03:08:43.211Z,0.26
2023-02-08T03:14:14.794Z,0.24
2023-02-08T03:19:32.394Z,0.20
2023-02-08T03:24:41.596Z,0.23
2023-02-08T03:30:02.534Z,0.25
2023-02-08T03:35:16.664Z,0.28
2023-02-08T03:40:42.360Z,0.29
2023-02-08T03:45:52.951Z,0.34
2023-02-08T03:50:59.423Z,0.38
2023-02-08T03:56:09.155Z,0.43
2023-02-08T04:01:29.753Z,0.38
2023-02-08T04:06:34.030Z,0.41
2023-02-08T04:11:37.190Z,0.44
2023-02-08T04:16:41.012Z,0.42
2023-02-08T04:21:44.156Z,0.45
2023-02-08T04:26:48.490Z,0.38
2023-02-08T04:31:52.446Z,0.35
2023-02-08T04:36:55.584Z,0.32
2023-02-08T04:42:00.687Z,0.19
2023-02-08T04:47:05.403Z,0.25
2023-02-08T04:52:09.375Z,0.16
2023-02-08T04:57:14.421Z,0.19
2023-02-08T05:02:17.580Z,0.01
2023-02-08T05:07:21.648Z,-0.06
2023-02-08T05:12:25.156Z,0.04
2023-02-08T05:17:28.271Z,0.10
2023-02-08T05:22:33.267Z,0.23
2023-02-08T05:27:39.747Z,0.28
2023-02-08T05:32:42.828Z,0.37
2023-02-08T05:37:45.914Z,0.36
2023-02-08T05:42:49.472Z,0.41
2023-02-08T05:47:52.559Z,0.08
2023-02-08T05:52:56.493Z,0.46
2023-02-08T05:57:59.445Z,0.29
2023-02-08T06:03:02.531Z,0.45
2023-02-08T06:08:06.434Z,0.46
2023-02-08T06:13:09.587Z,0.42
2023-02-08T06:18:13.309Z,0.57
2023-02-08T06:23:16.351Z,0.63
2023-02-08T06:28:19.651Z,0.64
2023-02-08T06:33:22.705Z,0.79
2023-02-08T06:38:27.061Z,0.81
2023-02-08T06:43:30.208Z,0.92
2023-02-08T06:48:34.971Z,0.91
2023-02-08T06:53:38.107Z,1.01
2023-02-08T06:58:41.651Z,1.11
2023-02-08T07:03:45.204Z,1.15
2023-02-08T07:08:48.795Z,1.19
2023-02-08T07:13:52.946Z,1.26
2023-02-08T07:18:56.499Z,1.27
2023-02-08T07:24:00.066Z,1.26
2023-02-08T07:29:04.077Z,1.31
2023-02-08T07:34:07.636Z,1.33
2023-02-08T07:39:10.890Z,1.36
2023-02-08T07:44:14.200Z,1.31
2023-02-08T07:49:17.394Z,1.39
2023-02-08T07:54:20.949Z,1.58
2023-02-08T07:59:24.615Z,1.71
2023-02-08T08:04:27.859Z,1.90
2023-02-08T08:09:32.227Z,1.99
2023-02-08T08:14:36.103Z,1.96
2023-02-08T08:19:39.485Z,1.92
2023-02-08T08:24:42.808Z,1.81
2023-02-08T08:29:46.315Z,1.77
2023-02-08T08:34:49.833Z,1.89
2023-02-08T08:39:53.488Z,1.90
2023-02-08T08:44:56.988Z,2.08
2023-02-08T08:50:00.046Z,2.13
2023-02-08T08:55:03.342Z,2.16
2023-02-08T09:00:07.813Z,2.17
2023-02-08T09:05:11.454Z,2.23
2023-02-08T09:10:15.738Z,2.22
2023-02-08T09:15:19.923Z,2.23
2023-02-08T09:20:24.329Z,2.26
2023-02-08T09:25:27.962Z,2.10
2023-02-08T09:30:32.334Z,2.19
2023-02-08T09:35:35.407Z,2.34
2023-02-08T09:41:14.906Z,2.32
2023-02-08T09:46:24.923Z,2.38
2023-02-08T09:51:42.837Z,1.99
2023-02-08T09:56:48.420Z,2.46
2023-02-08T10:01:57.169Z,2.53
2023-02-08T10:07:01.227Z,2.50
2023-02-08T10:12:20.745Z,2.57
2023-02-08T10:17:39.440Z,2.60
2023-02-08T10:23:03.304Z,2.39
2023-02-08T10:28:31.405Z,2.44
2023-02-08T10:34:06.190Z,2.47
2023-02-08T10:39:19.253Z,2.36
2023-02-08T10:44:34.353Z,2.39
2023-02-08T10:49:50.442Z,2.33
2023-02-08T10:54:53.676Z,2.44
2023-02-08T11:00:03.550Z,2.26
2023-02-08T11:05:09.158Z,2.39
2023-02-08T11:10:21.775Z,2.40
2023-02-08T11:15:30.811Z,2.31
2023-02-08T11:20:39.378Z,2.35
2023-02-08T11:25:43.092Z,2.36
2023-02-08T11:31:00.229Z,2.31
2023-02-08T11:36:08.078Z,2.30
2023-02-08T11:41:19.435Z,2.14
2023-02-08T11:46:28.870Z,2.00
2023-02-08T11:51:35.695Z,1.82
2023-02-08T11:56:38.867Z,1.70
2023-02-08T12:01:43.886Z,1.68
2023-02-08T12:06:49.753Z,1.71
2023-02-08T12:12:31.968Z,1.82
2023-02-08T12:17:54.582Z,1.74
2023-02-08T12:23:03.608Z,1.64
2023-02-08T12:28:21.928Z,1.54
2023-02-08T12:33:31.181Z,1.62
2023-02-08T12:39:20.132Z,1.73
2023-02-08T12:44:51.564Z,1.59
2023-02-08T12:50:15.827Z,1.47
2023-02-08T12:55:36.165Z,0.97
2023-02-08T13:00:42.932Z,0.68
2023-02-08T13:06:01.607Z,0.85
2023-02-08T13:11:20.318Z,0.69
2023-02-08T13:16:35.283Z,0.69
2023-02-08T13:21:43.342Z,0.69
2023-02-08T13:26:46.470Z,0.46
2023-02-08T13:32:34.276Z,0.55
2023-02-08T13:37:37.568Z,0.74
2023-02-08T13:42:45.556Z,0.65
2023-02-08T13:47:52.437Z,0.40
2023-02-08T13:52:56.154Z,0.43
2023-02-08T13:58:05.603Z,0.47
2023-02-08T14:03:08.674Z,0.58
2023-02-08T14:08:26.441Z,0.55
2023-02-08T14:13:51.454Z,0.30
2023-02-08T14:19:03.046Z,0.37
2023-02-08T14:24:08.371Z,0.53
2023-02-08T14:43:25.696Z,0.47
2023-02-08T14:48:51.699Z,0.44
2023-02-08T14:54:02.520Z,0.41
2023-02-08T14:59:19.319Z,0.39
2023-02-08T15:10:16.873Z,0.46
2023-02-08T15:15:52.767Z,0.55
2023-02-08T15:21:06.891Z,0.40
2023-02-08T15:26:24.030Z,0.19
2023-02-08T15:31:33.378Z,0.40
2023-02-08T15:36:38.679Z,0.74
2023-02-08T15:41:46.286Z,0.77
2023-02-08T15:51:57.258Z,0.69
2023-02-08T15:57:19.980Z,0.89
2023-02-08T16:02:31.834Z,0.92
2023-02-08T16:07:46.276Z,1.00
2023-02-08T16:13:00.157Z,1.04
2023-02-08T16:18:04.308Z,1.12
2023-02-08T16:23:33.563Z,1.15
2023-02-08T16:28:37.206Z,1.30
2023-02-08T16:33:40.667Z,1.25
2023-02-08T16:39:22.173Z,1.36
2023-02-08T16:44:31.830Z,1.31
2023-02-08T16:49:34.881Z,1.30
2023-02-08T16:54:37.908Z,1.20
2023-02-08T16:59:41.849Z,1.21
2023-02-08T17:04:45.331Z,1.16
2023-02-08T17:09:48.540Z,1.00
2023-02-08T17:14:52.009Z,1.13
2023-02-08T17:19:55.920Z,1.20
2023-02-08T17:24:59.484Z,0.98
2023-02-08T17:30:04.206Z,1.08
2023-02-08T17:35:08.104Z,1.16
2023-02-08T17:40:12.329Z,1.24
2023-02-08T17:45:15.773Z,1.26
2023-02-08T17:50:19.892Z,1.26
2023-02-08T17:55:25.180Z,1.25
2023-02-08T18:00:28.378Z,1.31
2023-02-08T18:05:33.425Z,1.20
2023-02-08T18:10:37.557Z,1.13
2023-02-08T18:15:41.250Z,1.19
2023-02-08T18:20:46.985Z,1.31
2023-02-08T18:25:50.097Z,1.24
2023-02-08T18:30:53.303Z,1.42
2023-02-08T18:35:56.397Z,1.46
2023-02-08T18:41:01.915Z,1.39
2023-02-08T18:46:11.178Z,1.22
2023-02-08T18:51:18.860Z,1.30
2023-02-08T18:56:26.244Z,1.35
2023-02-08T19:01:29.787Z,1.31
2023-02-08T19:06:37.041Z,1.22
2023-02-08T19:11:42.004Z,1.38
2023-02-08T19:16:45.180Z,1.51
2023-02-08T19:21:50.346Z,1.48
2023-02-08T19:26:53.419Z,1.49
2023-02-08T19:31:58.384Z,1.42
2023-02-08T19:37:02.094Z,1.63
2023-02-08T19:42:05.747Z,1.84
2023-02-08T19:47:09.456Z,1.83
2023-02-08T19:52:13.533Z,1.83
2023-02-08T19:57:16.781Z,1.75
2023-02-08T20:02:22.445Z,1.84
2023-02-08T20:07:27.242Z,1.82
2023-02-08T20:12:31.231Z,1.70
2023-02-08T20:17:35.071Z,1.54
2023-02-08T20:22:38.615Z,1.79
2023-02-08T20:27:41.700Z,2.30
2023-02-08T20:32:50.397Z,2.56
2023-02-08T20:37:53.872Z,2.66
2023-02-08T20:42:57.636Z,2.45
2023-02-08T20:48:01.352Z,2.10
2023-02-08T20:53:05.291Z,2.41
2023-02-08T20:58:08.365Z,2.55
2023-02-08T21:03:12.241Z,2.34
2023-02-08T21:08:15.540Z,2.14
2023-02-08T21:13:19.472Z,2.12
2023-02-08T21:18:23.732Z,1.92
2023-02-08T21:23:27.727Z,1.49
2023-02-08T21:28:31.249Z,1.67
2023-02-08T21:33:35.123Z,1.57
2023-02-08T21:38:39.191Z,1.45
2023-02-08T21:43:42.383Z,1.72
2023-02-08T21:49:04.209Z,2.08
2023-02-08T21:54:31.366Z,2.42
2023-02-08T21:59:38.112Z,2.35
2023-02-08T22:05:00.999Z,2.26
2023-02-08T22:10:07.971Z,2.11
2023-02-08T22:15:14.172Z,2.11
2023-02-08T22:20:18.063Z,2.06
2023-02-08T22:25:22.346Z,2.14
2023-02-08T22:30:26.321Z,2.00
2023-02-08T22:35:30.360Z,1.95
2023-02-08T22:40:33.954Z,1.99
2023-02-08T22:45:37.057Z,1.90
2023-02-08T22:50:40.543Z,1.58
2023-02-08T22:55:55.560Z,1.77
2023-02-08T23:00:59.210Z,1.61
2023-02-08T23:06:09.485Z,1.74
2023-02-08T23:11:15.064Z,1.36
2023-02-08T23:16:19.709Z,1.62
2023-02-08T23:21:23.346Z,1.34
2023-02-08T23:26:26.960Z,1.25
2023-02-08T23:31:30.974Z,1.14
2023-02-08T23:36:34.152Z,0.70
2023-02-08T23:41:37.244Z,1.16
2023-02-08T23:46:40.578Z,1.15
2023-02-08T23:51:44.107Z,1.12
2023-02-08T23:56:47.565Z,1.16
